Airfield :
LOGIN :

Register | Disclaimer

   EN    FR    IT 

 










Legend :    VFR   Marginal VFR   IFR   Intensive IFR   Very Intensive IFR
Visi :
Ceiling :
>= 8 km
>= 3000ft
5 to 8 km
1000 to 3000 ft
1500m to 5 km
500 to 1000 ft
800 to 1500m
200 to 500 ft
< 800m
< 200 ft
Symbols :   Thunderstorms  Fog  Heavy snow  Heavy precipitations  Wind > 20 kt
SIGMETs :     Misc.  Thunderstorms  Icing  Turbulence  Mountain Waves  Volcanic Ashes






- Airport Elevation : 17 ft
- IATA code : GRQ


EHGG - Groningen Eelde

CURRENT METAR :
  • 020855Z AUTO 21009KT 170V230 9999 -RA FEW006 SCT008 BKN047 FEW020CB 16/16 Q1008 RERA REDZ TEMPO 6000 SHRA BKN012 SCT020CB

EXPIRED METARs :
  • 020825Z AUTO 22010KT 180V250 9999 FEW011 FEW015CB BKN017 BKN021 18/15 Q1008 TEMPO 6000 SHRA BKN012 SCT020CB
  • 020755Z AUTO 21008KT 180V250 9999 SCT009 SCT011 BKN016 18/16 Q1008 TEMPO 6000 SHRA BKN012 SCT020CB
  • 020725Z AUTO 20007KT 9999 SCT008 BKN009 BKN010 FEW015CB 17/15 Q1008 BECMG BKN014 TEMPO 6000 SHRA BKN014 SCT020CB
  • 020655Z AUTO 20007KT 9999 SCT006 BKN007 BKN009 17/15 Q1007 BECMG BKN014 TEMPO 4000 SHRA BKN014 SCT020CB
  • 020625Z AUTO 23005KT 190V260 9999 BKN005 BKN007 BKN012 16/15 Q1007 BECMG BKN020 TEMPO 4000 SHRA BKN014 SCT020CB

TAF TAF EHGG
Valid from the 02 at 06:00 until the 03 at 12:00 UTC


020509Z 0206/0312 22006KT 9999 BKN012 BKN025
PROB40
TEMPO 0206/0210 4000 RADZ SHRA BKN006 FEW020CB
BECMG 0208/0211 25013KT SCT018
PROB40
TEMPO 0210/0214 5000 SHRA SCT020CB
BECMG 0221/0224 VRB03KT 4000 BR MIFG
PROB30
TEMPO 0303/0305 0500 BCFG
BECMG 0306/0309 24010KT 9999 NSW



MET'MAP, your aeronautical weather chart ! - Copyright ORBIFLY December 2007 - Disclaimer

ORBIFLY MET'MAP TEAM :

Programming & Development : Alexandra Zaïnal
Concept & original design : Baudouin d'Aumeries
Assistance for programming : Marc-Olivier Méhu
Technical & hardware support : Manuel Goepfert

Contact : metmap@orbifly.com




SOURCES & CREDITS :

   NOAA